Time;durP1;ratioP1;P1;durP2;ratioP2;P2;SDS_P1;SDS_P2;PMS_P1;PMS_P2;Temp;Humidity;BMP_temperature;BMP_pressure;BME280_temperature;BME280_humidity;BME280_pressure;Samples;Min_cycle;Max_cycle;Signal;HPM_P1;HPM_P2
2022/04/15 00:00:45;;;;;;;2.95;1.92;;;7.00;92.30;;;;;;5030540;28;20041;-65
2022/04/15 00:03:11;;;;;;;3.88;1.50;;;7.00;91.80;;;;;;5029805;28;20406;-65
2022/04/15 00:05:40;;;;;;;4.70;1.95;;;6.90;92.10;;;;;;5034262;28;20037;-65
2022/04/15 00:08:10;;;;;;;5.70;1.55;;;6.90;92.50;;;;;;5031957;28;20531;-65
2022/04/15 00:10:37;;;;;;;2.38;1.70;;;7.00;92.50;;;;;;5034881;28;20057;-65
2022/04/15 00:13:06;;;;;;;7.10;1.73;;;6.80;92.50;;;;;;5035912;28;20320;-65
2022/04/15 00:15:33;;;;;;;3.33;1.38;;;6.60;92.50;;;;;;5030505;28;20159;-65
2022/04/15 00:17:59;;;;;;;3.25;1.50;;;6.40;92.70;;;;;;5034906;28;20068;-65
2022/04/15 00:20:26;;;;;;;4.63;1.42;;;6.30;93.00;;;;;;5032650;28;20514;-65
2022/04/15 00:22:53;;;;;;;3.38;1.25;;;6.30;93.20;;;;;;5029828;28;20040;-66
2022/04/15 00:25:19;;;;;;;3.55;1.38;;;6.30;93.30;;;;;;5034078;28;20041;-65
2022/04/15 00:27:45;;;;;;;5.72;1.52;;;6.30;93.50;;;;;;5037247;28;20572;-65
2022/04/15 00:30:12;;;;;;;3.25;1.50;;;6.40;93.60;;;;;;5036777;28;20055;-65
2022/04/15 00:32:38;;;;;;;1.90;1.38;;;6.50;93.60;;;;;;5035343;28;20371;-65
2022/04/15 00:35:04;;;;;;;2.17;1.52;;;6.50;93.20;;;;;;5033805;28;20048;-65
2022/04/15 00:37:31;;;;;;;5.93;1.35;;;6.50;93.20;;;;;;5034482;28;20465;-66
2022/04/15 00:39:57;;;;;;;1.85;1.38;;;6.20;93.20;;;;;;5032795;28;20132;-65
2022/04/15 00:42:23;;;;;;;2.17;1.30;;;6.10;93.40;;;;;;5042548;28;20057;-65
2022/04/15 00:44:55;;;;;;;1.83;1.52;;;6.00;94.00;;;;;;5041679;28;20037;-65
2022/04/15 00:47:33;;;;;;;1.90;1.48;;;6.10;93.80;;;;;;5037772;28;20040;-65
2022/04/15 00:49:58;;;;;;;2.80;2.00;;;6.20;94.20;;;;;;5038406;28;20128;-65
2022/04/15 00:52:29;;;;;;;5.45;1.80;;;6.30;93.90;;;;;;5041333;28;20191;-65
2022/04/15 00:54:56;;;;;;;5.80;1.95;;;6.40;93.70;;;;;;5039304;28;20132;-65
2022/04/15 00:57:25;;;;;;;1.38;1.08;;;6.40;93.70;;;;;;5035741;28;20041;-66
2022/04/15 00:59:53;;;;;;;1.95;1.10;;;6.50;93.40;;;;;;5037151;28;20045;-65
2022/04/15 01:02:20;;;;;;;1.38;1.10;;;6.40;93.20;;;;;;5038259;28;20037;-65
2022/04/15 01:04:47;;;;;;;5.80;2.35;;;6.40;93.30;;;;;;5037540;28;20071;-65
2022/04/15 01:07:16;;;;;;;3.58;2.10;;;6.40;93.70;;;;;;5034948;28;20534;-65
2022/04/15 01:09:44;;;;;;;2.60;1.30;;;6.50;93.50;;;;;;5037423;28;20141;-65
2022/04/15 01:12:10;;;;;;;2.35;1.17;;;6.60;93.40;;;;;;5040768;28;20037;-65
2022/04/15 01:14:39;;;;;;;8.93;1.20;;;6.60;93.20;;;;;;5041095;28;20447;-65
2022/04/15 01:17:05;;;;;;;3.28;1.10;;;6.40;93.30;;;;;;5038124;28;20038;-65
2022/04/15 01:19:30;;;;;;;4.55;1.45;;;6.20;93.90;;;;;;5019110;28;20055;-65
2022/04/15 01:22:01;;;;;;;2.03;1.20;;;6.10;94.50;;;;;;5037208;28;20068;-65
2022/04/15 01:24:29;;;;;;;2.70;1.45;;;6.10;94.40;;;;;;5034476;28;20573;-66
2022/04/15 01:26:54;;;;;;;7.65;1.50;;;6.10;94.30;;;;;;5034151;28;20128;-65
2022/04/15 01:29:20;;;;;;;2.65;1.50;;;6.30;94.30;;;;;;5041113;28;20160;-65
2022/04/15 01:31:45;;;;;;;1.30;1.08;;;6.40;94.20;;;;;;5037941;28;20048;-65
2022/04/15 01:34:11;;;;;;;2.60;1.20;;;6.30;94.60;;;;;;5037580;28;20056;-66
2022/04/15 01:36:37;;;;;;;1.65;1.00;;;6.20;94.10;;;;;;5034140;28;20034;-65
2022/04/15 01:39:02;;;;;;;2.05;1.38;;;6.10;93.90;;;;;;5032652;28;20041;-66
2022/04/15 01:41:28;;;;;;;1.83;1.15;;;6.10;94.30;;;;;;5038083;28;20134;-65
2022/04/15 01:43:54;;;;;;;1.30;0.98;;;6.20;94.10;;;;;;5038229;28;20040;-65
2022/04/15 01:46:19;;;;;;;3.67;0.90;;;6.10;94.10;;;;;;5036248;28;20198;-65
2022/04/15 01:48:45;;;;;;;3.22;1.40;;;6.00;94.10;;;;;;5050081;28;20492;-65
2022/04/15 01:51:11;;;;;;;1.45;1.10;;;5.90;95.00;;;;;;5058745;28;20224;-65
2022/04/15 01:53:36;;;;;;;2.67;1.20;;;5.90;95.00;;;;;;5055469;28;20094;-66
2022/04/15 01:56:02;;;;;;;5.78;1.70;;;5.90;94.60;;;;;;5053645;28;20120;-65
2022/04/15 01:58:27;;;;;;;1.52;1.20;;;6.10;94.30;;;;;;5060751;28;20029;-65
2022/04/15 02:00:53;;;;;;;1.90;1.20;;;6.30;94.10;;;;;;5054954;28;20563;-65
2022/04/15 02:03:19;;;;;;;2.03;1.00;;;6.10;93.80;;;;;;5051634;28;20044;-66
2022/04/15 02:05:44;;;;;;;1.27;0.98;;;5.90;94.00;;;;;;5051650;28;20041;-65
2022/04/15 02:08:10;;;;;;;1.05;0.80;;;5.70;94.60;;;;;;5051299;28;20041;-66
2022/04/15 02:10:36;;;;;;;3.55;1.17;;;5.70;95.10;;;;;;5054684;28;20045;-65
2022/04/15 02:13:01;;;;;;;2.17;1.08;;;5.70;95.00;;;;;;5047960;28;20651;-66
2022/04/15 02:15:27;;;;;;;2.40;1.55;;;5.80;94.90;;;;;;5049868;28;20467;-65
2022/04/15 02:17:54;;;;;;;2.25;1.50;;;5.90;94.60;;;;;;5049104;28;20047;-65
2022/04/15 02:20:19;;;;;;;2.22;1.13;;;5.90;94.70;;;;;;5053353;28;20041;-66
2022/04/15 02:22:45;;;;;;;1.30;1.10;;;5.90;94.30;;;;;;5049388;28;20082;-66
2022/04/15 02:25:11;;;;;;;2.45;0.82;;;5.80;94.50;;;;;;5055298;28;20500;-65
2022/04/15 02:27:36;;;;;;;1.92;1.10;;;5.70;95.10;;;;;;5029856;28;20115;-65
2022/04/15 02:30:03;;;;;;;2.20;1.08;;;5.60;95.40;;;;;;5053018;28;20036;-65
2022/04/15 02:32:29;;;;;;;2.55;1.00;;;5.60;95.60;;;;;;5048811;28;20595;-66
2022/04/15 02:34:55;;;;;;;1.02;0.90;;;5.60;95.70;;;;;;5051590;28;20049;-66
2022/04/15 02:37:21;;;;;;;1.70;0.75;;;5.60;95.70;;;;;;5051201;28;20032;-65
2022/04/15 02:39:48;;;;;;;1.55;1.10;;;5.50;95.90;;;;;;5049480;28;20028;-65
2022/04/15 02:42:14;;;;;;;1.70;0.93;;;5.50;95.50;;;;;;5052274;28;20497;-65
2022/04/15 02:44:40;;;;;;;2.03;1.30;;;5.50;95.40;;;;;;5049963;28;20051;-66
2022/04/15 02:47:07;;;;;;;1.25;1.10;;;5.60;95.60;;;;;;5052470;28;20506;-66
2022/04/15 02:49:33;;;;;;;2.35;1.10;;;5.50;95.70;;;;;;5047943;28;20140;-65
2022/04/15 02:51:59;;;;;;;3.83;1.13;;;5.50;96.00;;;;;;5049459;28;20036;-65
2022/04/15 02:54:24;;;;;;;1.33;0.90;;;5.40;95.90;;;;;;5051014;28;20509;-66
2022/04/15 02:56:50;;;;;;;1.70;1.17;;;5.30;96.00;;;;;;5054952;28;20043;-66
2022/04/15 02:59:16;;;;;;;4.25;1.42;;;5.40;96.10;;;;;;5055325;28;20190;-66
2022/04/15 03:01:44;;;;;;;6.93;1.10;;;5.40;96.10;;;;;;5056413;28;20413;-66
2022/04/15 03:04:10;;;;;;;1.63;0.82;;;5.40;96.00;;;;;;5060746;28;20025;-65
2022/04/15 03:06:35;;;;;;;1.50;1.17;;;5.40;95.70;;;;;;5051387;28;20033;-66
2022/04/15 03:09:02;;;;;;;1.83;1.23;;;5.40;95.60;;;;;;5048546;28;20098;-65
2022/04/15 03:11:27;;;;;;;1.40;0.93;;;5.40;95.80;;;;;;5056282;28;20033;-66
2022/04/15 03:13:53;;;;;;;2.42;1.40;;;5.40;96.10;;;;;;5058204;28;20048;-65
2022/04/15 03:16:18;;;;;;;2.40;1.65;;;5.50;95.70;;;;;;5053958;28;20051;-65
2022/04/15 03:18:44;;;;;;;1.80;1.60;;;5.60;95.70;;;;;;5060697;28;20067;-66
2022/04/15 03:21:10;;;;;;;8.57;1.92;;;5.60;95.70;;;;;;5051922;28;20125;-66
2022/04/15 03:23:36;;;;;;;4.63;2.08;;;5.70;95.50;;;;;;5055243;28;20037;-66
2022/04/15 03:26:01;;;;;;;3.70;2.30;;;5.80;95.40;;;;;;5057660;28;20429;-66
2022/04/15 03:28:27;;;;;;;4.00;1.90;;;5.70;95.40;;;;;;5059402;28;20051;-65
2022/04/15 03:30:53;;;;;;;3.35;1.10;;;5.70;95.50;;;;;;5058475;28;20635;-65
2022/04/15 03:33:18;;;;;;;1.60;0.95;;;5.60;95.60;;;;;;5053249;28;20187;-65
2022/04/15 03:35:44;;;;;;;1.98;0.88;;;5.40;95.80;;;;;;5058493;28;20335;-65
2022/04/15 03:38:09;;;;;;;4.50;1.20;;;5.30;95.90;;;;;;5053495;28;20063;-66
2022/04/15 03:40:35;;;;;;;1.50;1.13;;;5.30;95.80;;;;;;5061704;28;20892;-66
2022/04/15 03:43:01;;;;;;;3.67;1.13;;;5.40;96.00;;;;;;5034987;28;20517;-66
2022/04/15 03:45:27;;;;;;;2.00;1.38;;;5.40;96.20;;;;;;5057714;28;20946;-66
2022/04/15 03:47:56;;;;;;;1.90;0.85;;;5.30;96.10;;;;;;5057183;28;20055;-66
2022/04/15 03:50:22;;;;;;;1.65;1.00;;;5.30;96.10;;;;;;5058588;28;20036;-65
2022/04/15 03:52:48;;;;;;;1.70;1.10;;;5.40;96.00;;;;;;5055050;28;20089;-66
2022/04/15 03:55:20;;;;;;;7.10;1.02;;;5.40;96.00;;;;;;5049975;28;20045;-66
2022/04/15 03:57:46;;;;;;;1.45;1.25;;;5.30;95.80;;;;;;5051835;28;20031;-66
2022/04/15 04:00:24;;;;;;;1.50;1.10;;;5.20;95.90;;;;;;5054083;28;20037;-66
2022/04/15 04:02:52;;;;;;;1.17;0.98;;;5.20;96.50;;;;;;5050722;28;20466;-65
2022/04/15 04:05:19;;;;;;;2.90;0.93;;;5.10;96.70;;;;;;5057738;28;20120;-65
2022/04/15 04:07:45;;;;;;;1.88;1.30;;;5.10;96.50;;;;;;5055429;28;20040;-66
2022/04/15 04:10:12;;;;;;;3.10;1.70;;;5.20;96.50;;;;;;5054358;28;20064;-65
2022/04/15 04:12:38;;;;;;;3.17;1.42;;;5.30;96.30;;;;;;5054270;28;20032;-65
2022/04/15 04:15:06;;;;;;;2.15;1.42;;;5.40;96.50;;;;;;5058814;28;20051;-65
2022/04/15 04:17:32;;;;;;;1.38;1.10;;;5.40;96.40;;;;;;5056161;28;21191;-66
2022/04/15 04:19:58;;;;;;;6.30;1.90;;;5.30;96.20;;;;;;5055922;28;20029;-66
2022/04/15 04:22:28;;;;;;;3.28;1.45;;;5.30;96.30;;;;;;5053237;28;20602;-66
2022/04/15 04:24:55;;;;;;;1.88;1.35;;;5.20;97.00;;;;;;5057768;28;20724;-66
2022/04/15 04:27:20;;;;;;;4.47;1.23;;;5.20;96.90;;;;;;5057331;28;20033;-66
2022/04/15 04:29:46;;;;;;;3.45;1.30;;;5.20;97.10;;;;;;5057384;28;20108;-65
2022/04/15 04:32:13;;;;;;;2.22;1.23;;;5.20;97.00;;;;;;5057797;28;20036;-65
2022/04/15 04:34:39;;;;;;;2.38;1.58;;;5.20;97.00;;;;;;5055662;28;20049;-66
2022/04/15 04:37:05;;;;;;;2.22;1.23;;;5.20;97.50;;;;;;5057198;28;20044;-66
2022/04/15 04:39:30;;;;;;;4.00;1.50;;;5.30;97.40;;;;;;5051320;28;20040;-66
2022/04/15 04:41:58;;;;;;;3.97;1.55;;;5.40;96.80;;;;;;5057178;28;20645;-66
2022/04/15 04:44:24;;;;;;;3.15;1.60;;;5.60;96.80;;;;;;5049942;28;20039;-66
2022/04/15 04:46:51;;;;;;;2.92;1.20;;;5.70;96.70;;;;;;5053767;28;20494;-65
2022/04/15 04:49:16;;;;;;;2.92;1.45;;;5.80;97.00;;;;;;5057156;28;20255;-65
2022/04/15 04:51:42;;;;;;;6.90;1.48;;;5.80;96.70;;;;;;5050297;28;20044;-65
2022/04/15 04:54:08;;;;;;;3.95;1.80;;;5.80;96.80;;;;;;5051084;28;20921;-64
2022/04/15 04:56:34;;;;;;;2.90;1.92;;;6.00;96.50;;;;;;5054336;28;20032;-65
2022/04/15 04:59:00;;;;;;;3.60;2.40;;;6.20;96.20;;;;;;5051626;28;20036;-65
2022/04/15 05:01:25;;;;;;;4.40;1.77;;;6.50;95.90;;;;;;5055717;28;20125;-65
2022/04/15 05:03:51;;;;;;;6.40;4.40;;;6.60;95.80;;;;;;5056451;28;20106;-65
2022/04/15 05:06:17;;;;;;;7.35;3.78;;;6.50;95.90;;;;;;5047694;28;20446;-65
2022/04/15 05:08:42;;;;;;;2.72;2.30;;;6.50;96.20;;;;;;5049832;28;20097;-65
2022/04/15 05:11:08;;;;;;;3.55;2.25;;;6.50;96.70;;;;;;5054683;28;20497;-65
2022/04/15 05:13:34;;;;;;;3.63;2.53;;;6.50;96.70;;;;;;5050937;28;20033;-65
2022/04/15 05:15:59;;;;;;;5.50;2.67;;;6.60;97.10;;;;;;5048389;28;20516;-65
2022/04/15 05:18:25;;;;;;;4.78;3.00;;;6.80;97.60;;;;;;5052756;28;20079;-65
2022/04/15 05:20:51;;;;;;;3.55;2.70;;;7.00;96.90;;;;;;5040543;28;20040;-65
2022/04/15 05:23:17;;;;;;;3.35;2.70;;;7.20;96.90;;;;;;5052319;28;20063;-65
2022/04/15 05:25:42;;;;;;;4.25;2.85;;;7.40;96.50;;;;;;5050935;28;20036;-65
2022/04/15 05:28:08;;;;;;;4.68;2.85;;;7.70;96.40;;;;;;5049992;28;20985;-65
2022/04/15 05:30:33;;;;;;;5.47;2.83;;;7.80;96.20;;;;;;5052186;28;20037;-65
2022/04/15 05:32:59;;;;;;;6.60;3.03;;;7.90;96.40;;;;;;5057474;28;20453;-65
2022/04/15 05:35:25;;;;;;;5.03;3.17;;;7.90;96.10;;;;;;5043818;28;21438;-65
2022/04/15 05:37:51;;;;;;;3.88;3.17;;;8.00;96.10;;;;;;5053197;28;20112;-65
2022/04/15 05:40:16;;;;;;;4.78;3.45;;;8.10;96.70;;;;;;5059503;28;20051;-65
2022/04/15 05:42:42;;;;;;;8.23;3.63;;;8.10;96.90;;;;;;5059955;28;20044;-65
2022/04/15 05:45:09;;;;;;;3.95;3.17;;;8.10;96.80;;;;;;5053531;28;20263;-65
2022/04/15 05:47:34;;;;;;;4.68;3.03;;;8.20;96.40;;;;;;5055657;28;20048;-65
2022/04/15 05:50:00;;;;;;;4.65;3.03;;;8.30;96.80;;;;;;5057580;28;20329;-65
2022/04/15 05:52:26;;;;;;;2.92;2.55;;;8.50;96.60;;;;;;5054904;28;20115;-65
2022/04/15 05:54:51;;;;;;;3.85;2.83;;;8.60;96.30;;;;;;5044686;28;20079;-65
2022/04/15 05:57:19;;;;;;;7.82;2.60;;;8.70;96.10;;;;;;5056350;28;20036;-65
2022/04/15 05:59:45;;;;;;;6.40;3.78;;;8.80;95.50;;;;;;5055674;28;20051;-65
2022/04/15 06:02:11;;;;;;;5.38;2.50;;;8.90;95.10;;;;;;5055980;28;20041;-65
2022/04/15 06:04:36;;;;;;;5.43;3.08;;;9.00;95.50;;;;;;5060392;28;20040;-66
2022/04/15 06:07:02;;;;;;;3.58;2.60;;;9.00;94.90;;;;;;5039887;28;20060;-68
2022/04/15 06:09:28;;;;;;;4.80;2.38;;;9.10;94.20;;;;;;5052012;28;20052;-68
2022/04/15 06:11:55;;;;;;;4.53;4.10;;;9.20;93.10;;;;;;5058085;28;20025;-68
2022/04/15 06:14:22;;;;;;;4.75;4.07;;;9.40;93.20;;;;;;5057401;28;20107;-67
2022/04/15 06:16:48;;;;;;;6.47;3.58;;;9.60;93.00;;;;;;5050681;28;20060;-68
2022/04/15 06:19:14;;;;;;;4.10;3.20;;;9.80;93.00;;;;;;5055488;28;20041;-68
2022/04/15 06:21:40;;;;;;;5.15;2.35;;;10.00;92.40;;;;;;5052328;28;20037;-68
2022/04/15 06:24:08;;;;;;;3.72;2.75;;;10.20;92.10;;;;;;5058018;28;20037;-68
2022/04/15 06:26:35;;;;;;;6.25;2.78;;;10.30;91.80;;;;;;5049872;28;20044;-68
2022/04/15 06:29:00;;;;;;;3.20;2.40;;;10.50;92.00;;;;;;5037891;28;20045;-68
2022/04/15 06:31:26;;;;;;;3.53;2.53;;;10.60;91.90;;;;;;5056613;28;20083;-68
2022/04/15 06:33:52;;;;;;;6.07;2.80;;;10.70;92.10;;;;;;5059168;28;20056;-68
2022/04/15 06:36:21;;;;;;;3.78;2.75;;;10.80;92.40;;;;;;5049963;28;20072;-68
2022/04/15 06:38:46;;;;;;;5.85;2.80;;;11.00;92.30;;;;;;5055662;28;20417;-67
2022/04/15 06:41:12;;;;;;;11.50;2.88;;;11.10;91.80;;;;;;5051506;28;20040;-67
2022/04/15 06:43:39;;;;;;;5.72;2.85;;;11.20;91.80;;;;;;5041610;28;20049;-69
2022/04/15 06:46:05;;;;;;;4.45;2.90;;;11.40;91.90;;;;;;5037851;28;20039;-69
2022/04/15 06:48:31;;;;;;;3.60;2.80;;;11.50;90.50;;;;;;5049671;28;20045;-67
2022/04/15 06:50:56;;;;;;;4.97;3.20;;;11.70;91.40;;;;;;5051546;28;20235;-69
2022/04/15 06:53:23;;;;;;;5.07;2.53;;;11.70;91.40;;;;;;5046450;28;20364;-69
2022/04/15 06:55:50;;;;;;;9.15;4.78;;;11.80;91.40;;;;;;5052992;28;20048;-69
2022/04/15 06:58:16;;;;;;;11.35;9.13;;;11.90;91.50;;;;;;5042220;28;20037;-69
2022/04/15 07:00:41;;;;;;;5.53;3.55;;;12.00;90.20;;;;;;5051256;28;20064;-70
2022/04/15 07:03:09;;;;;;;4.38;3.17;;;12.10;89.80;;;;;;5052230;28;20048;-69
2022/04/15 07:05:35;;;;;;;3.72;2.70;;;12.20;89.10;;;;;;5049842;28;20052;-69
2022/04/15 07:08:00;;;;;;;4.43;2.80;;;12.30;88.10;;;;;;5047057;28;20032;-69
2022/04/15 07:10:26;;;;;;;4.85;3.17;;;12.40;87.50;;;;;;5053509;28;20040;-69
2022/04/15 07:12:52;;;;;;;4.53;2.95;;;12.50;87.40;;;;;;5054535;28;20733;-69
2022/04/15 07:15:19;;;;;;;6.20;2.70;;;12.60;86.90;;;;;;5046831;28;20057;-69
2022/04/15 07:17:45;;;;;;;9.82;3.40;;;12.70;85.60;;;;;;5051347;28;20072;-69
2022/04/15 07:20:11;;;;;;;5.68;2.85;;;12.80;85.70;;;;;;5042845;28;20381;-69
2022/04/15 07:22:37;;;;;;;7.78;2.90;;;13.00;82.50;;;;;;5053896;28;20571;-69
2022/04/15 07:25:03;;;;;;;6.50;2.75;;;13.10;81.20;;;;;;5036452;28;20076;-69
2022/04/15 07:27:29;;;;;;;7.82;2.95;;;13.20;78.60;;;;;;5049531;28;20675;-69
2022/04/15 07:29:54;;;;;;;4.60;2.35;;;13.30;77.80;;;;;;5048173;28;20041;-69
2022/04/15 07:32:25;;;;;;;4.93;2.92;;;13.30;77.00;;;;;;5045650;28;20160;-69
2022/04/15 07:34:51;;;;;;;5.68;2.88;;;13.30;79.70;;;;;;5045741;28;20518;-69
2022/04/15 07:37:17;;;;;;;7.82;2.65;;;13.30;80.20;;;;;;5046653;28;20048;-69
2022/04/15 07:39:44;;;;;;;4.72;2.65;;;13.30;80.60;;;;;;5036565;28;20436;-69
2022/04/15 07:42:11;;;;;;;3.85;2.45;;;13.30;80.10;;;;;;5056135;28;20074;-69
2022/04/15 07:44:38;;;;;;;4.72;2.75;;;13.30;80.90;;;;;;5053002;28;20032;-69
2022/04/15 07:47:04;;;;;;;3.85;2.80;;;13.30;82.50;;;;;;5048874;28;20044;-69
2022/04/15 07:49:30;;;;;;;4.68;2.83;;;13.30;82.20;;;;;;5041612;28;20060;-69
2022/04/15 07:51:55;;;;;;;5.95;2.83;;;13.30;81.80;;;;;;5035107;28;20041;-69
2022/04/15 07:54:21;;;;;;;6.05;3.08;;;13.40;82.50;;;;;;5039034;28;20057;-68
2022/04/15 07:56:47;;;;;;;11.52;3.10;;;13.40;82.20;;;;;;5031879;28;20051;-69
2022/04/15 07:59:12;;;;;;;6.00;3.15;;;13.50;82.40;;;;;;5050898;28;20123;-68
2022/04/15 08:01:41;;;;;;;10.98;3.40;;;13.60;82.70;;;;;;5045102;28;20094;-68
2022/04/15 08:04:07;;;;;;;17.35;3.28;;;13.70;83.30;;;;;;5041147;28;20048;-68
2022/04/15 08:06:33;;;;;;;10.77;3.05;;;13.70;81.30;;;;;;5048160;28;20375;-67
2022/04/15 08:09:00;;;;;;;6.35;2.65;;;13.80;81.60;;;;;;5048861;28;20119;-67
2022/04/15 08:11:26;;;;;;;5.53;2.72;;;13.90;82.20;;;;;;5046916;28;20041;-67
2022/04/15 08:13:53;;;;;;;3.22;2.90;;;13.90;82.00;;;;;;5039209;28;20044;-67
2022/04/15 08:16:20;;;;;;;5.43;3.35;;;14.00;81.50;;;;;;5053594;28;20351;-67
2022/04/15 08:18:46;;;;;;;5.90;2.80;;;14.00;81.70;;;;;;5042115;28;20056;-67
2022/04/15 08:21:12;;;;;;;5.78;2.90;;;14.00;81.30;;;;;;5047521;28;20627;-68
2022/04/15 08:23:38;;;;;;;5.22;3.17;;;14.10;81.10;;;;;;5046669;28;20044;-67
2022/04/15 08:26:03;;;;;;;6.85;3.20;;;14.10;80.60;;;;;;5048996;28;20170;-67
2022/04/15 08:28:29;;;;;;;7.43;3.35;;;14.10;82.00;;;;;;5046557;28;20110;-67
2022/04/15 08:30:55;;;;;;;6.57;3.33;;;14.10;80.60;;;;;;5045052;28;20430;-67
2022/04/15 08:33:22;;;;;;;5.25;3.38;;;14.20;79.70;;;;;;5048575;28;20496;-67
2022/04/15 08:35:48;;;;;;;6.40;3.92;;;14.20;79.90;;;;;;5048206;28;20032;-67
2022/04/15 08:38:14;;;;;;;6.25;3.80;;;14.60;78.50;;;;;;5052428;28;20533;-67
2022/04/15 08:40:46;;;;;;;11.40;4.22;;;14.60;76.70;;;;;;5038308;28;20044;-68
2022/04/15 08:43:11;;;;;;;5.50;3.95;;;14.60;78.10;;;;;;5049816;28;20036;-69
2022/04/15 08:45:41;;;;;;;12.52;4.68;;;14.60;77.20;;;;;;5036144;28;20053;-68
2022/04/15 08:48:08;;;;;;;6.97;3.92;;;14.60;76.40;;;;;;5048574;28;20036;-67
2022/04/15 08:50:34;;;;;;;6.07;3.97;;;14.70;76.80;;;;;;5048147;28;20041;-67
2022/04/15 08:53:00;;;;;;;7.70;3.97;;;14.90;74.80;;;;;;5047815;28;20024;-67
2022/04/15 08:55:29;;;;;;;4.88;3.40;;;15.20;71.80;;;;;;5050735;28;20056;-67
2022/04/15 08:57:56;;;;;;;8.20;3.80;;;15.10;71.40;;;;;;5044743;28;20040;-67
2022/04/15 09:00:24;;;;;;;7.43;4.20;;;15.20;70.90;;;;;;5034730;28;20102;-67
2022/04/15 09:02:51;;;;;;;9.25;4.00;;;15.30;70.10;;;;;;5046246;28;20032;-67
2022/04/15 09:05:28;;;;;;;9.43;4.25;;;15.20;70.10;;;;;;5050722;28;20168;-67
2022/04/15 09:08:11;;;;;;;5.30;3.78;;;15.40;70.90;;;;;;5051710;28;20051;-67
2022/04/15 09:10:40;;;;;;;5.07;3.53;;;15.50;69.90;;;;;;5056587;28;20029;-67
2022/04/15 09:13:07;;;;;;;11.80;4.13;;;15.70;69.40;;;;;;5054995;28;20041;-67
2022/04/15 09:15:33;;;;;;;10.32;4.38;;;15.70;70.20;;;;;;5051134;28;20045;-67
2022/04/15 09:18:00;;;;;;;9.60;4.03;;;15.60;70.80;;;;;;5053559;28;20126;-67
2022/04/15 09:20:33;;;;;;;7.57;3.78;;;15.60;70.40;;;;;;5057878;28;20032;-67
2022/04/15 09:23:08;;;;;;;4.00;3.17;;;15.70;70.30;;;;;;5054939;28;20098;-67
2022/04/15 09:25:35;;;;;;;21.10;3.63;;;15.70;69.90;;;;;;5048306;28;20067;-67
2022/04/15 09:28:01;;;;;;;30.38;5.20;;;15.80;70.20;;;;;;5047972;28;20037;-68
2022/04/15 09:30:41;;;;;;;4.70;3.10;;;16.10;69.80;;;;;;5051904;28;20068;-67
2022/04/15 09:33:10;;;;;;;9.27;5.50;;;16.40;65.80;;;;;;5052080;28;20039;-65
2022/04/15 09:35:35;;;;;;;7.93;5.00;;;16.20;65.00;;;;;;5010536;28;20044;-65
2022/04/15 09:38:04;;;;;;;5.78;3.40;;;15.90;67.00;;;;;;5031344;28;20648;-65
2022/04/15 09:40:35;;;;;;;6.95;3.83;;;15.90;64.70;;;;;;5037663;28;20048;-63
2022/04/15 09:43:03;;;;;;;6.83;3.30;;;15.90;63.00;;;;;;5051094;28;20512;-62
2022/04/15 09:45:31;;;;;;;6.28;3.20;;;15.90;63.50;;;;;;5043806;28;20293;-63
2022/04/15 09:48:05;;;;;;;5.82;2.85;;;16.00;61.20;;;;;;5035670;28;20055;-62
2022/04/15 09:50:37;;;;;;;4.00;2.95;;;16.10;62.00;;;;;;5032740;28;20553;-63
2022/04/15 09:53:08;;;;;;;;;;;16.20;59.30;;;;;;5031162;28;20132;-63
2022/04/15 09:55:39;;;;;;;3.75;2.55;;;16.30;57.10;;;;;;5037444;28;19944;-63
2022/04/15 09:58:11;;;;;;;4.63;2.80;;;16.40;58.60;;;;;;5039193;28;20098;-63
2022/04/15 10:00:39;;;;;;;5.05;3.00;;;16.50;56.80;;;;;;5050796;28;20044;-63
2022/04/15 10:03:14;;;;;;;2.95;2.40;;;16.60;55.40;;;;;;5048789;28;20062;-62
2022/04/15 10:05:40;;;;;;;4.07;2.55;;;16.70;55.40;;;;;;5053904;28;20037;-62
2022/04/15 10:08:07;;;;;;;5.65;2.88;;;16.90;56.80;;;;;;5051372;28;20535;-62
2022/04/15 10:10:33;;;;;;;3.67;2.90;;;17.10;55.90;;;;;;5038073;28;20102;-63
2022/04/15 10:13:06;;;;;;;3.80;2.50;;;17.30;54.00;;;;;;5033982;28;20449;-62
2022/04/15 10:15:33;;;;;;;8.77;3.35;;;17.30;53.60;;;;;;5055629;28;20047;-62
2022/04/15 10:18:00;;;;;;;4.57;2.28;;;17.50;55.00;;;;;;5054376;28;20052;-63
2022/04/15 10:20:27;;;;;;;3.78;1.95;;;17.70;57.80;;;;;;5052581;28;20183;-63
2022/04/15 10:22:59;;;;;;;6.53;2.40;;;18.10;56.20;;;;;;5052761;28;20114;-63
2022/04/15 10:25:25;;;;;;;4.68;2.50;;;18.40;55.00;;;;;;5048672;28;20033;-62
2022/04/15 10:27:51;;;;;;;8.82;2.83;;;18.50;52.50;;;;;;5043933;28;20052;-63
2022/04/15 10:30:21;;;;;;;4.28;2.60;;;18.60;53.30;;;;;;5040155;28;20040;-61
2022/04/15 10:32:48;;;;;;;4.10;2.40;;;18.70;53.50;;;;;;5030400;28;20052;-61
2022/04/15 10:35:26;;;;;;;6.13;2.78;;;18.80;54.00;;;;;;5032365;28;20070;-61
2022/04/15 10:38:02;;;;;;;5.75;3.10;;;18.90;52.80;;;;;;5050667;28;20096;-61
2022/04/15 10:40:32;;;;;;;3.70;2.13;;;18.80;53.00;;;;;;5042830;28;20041;-61
2022/04/15 10:43:05;;;;;;;3.65;2.33;;;18.90;52.90;;;;;;5048156;28;20490;-62
2022/04/15 10:45:35;;;;;;;4.95;2.30;;;18.80;53.20;;;;;;5043997;28;20036;-61
2022/04/15 10:48:03;;;;;;;3.20;1.90;;;18.80;52.90;;;;;;5048476;28;20041;-61
2022/04/15 10:50:31;;;;;;;3.05;2.20;;;18.80;53.20;;;;;;5048836;28;20027;-61
2022/04/15 10:53:16;;;;;;;6.38;2.20;;;18.80;51.20;;;;;;5039362;28;20040;-62
2022/04/15 10:55:48;;;;;;;8.30;2.33;;;18.90;52.00;;;;;;5049665;28;20048;-62
2022/04/15 10:58:15;;;;;;;5.65;2.40;;;19.10;53.10;;;;;;5015013;28;20045;-61
2022/04/15 11:03:32;;;;;;;4.53;1.20;;;19.30;53.30;;;;;;5050333;28;20153;-61
2022/04/15 11:05:59;;;;;;;1.88;1.00;;;19.40;54.20;;;;;;5044206;28;20044;-61
2022/04/15 11:08:43;;;;;;;2.28;0.90;;;19.30;53.90;;;;;;5020084;28;20033;-61
2022/04/15 11:11:08;;;;;;;1.55;0.68;;;19.10;54.70;;;;;;5051061;28;20567;-61
2022/04/15 11:13:40;;;;;;;4.10;1.80;;;18.90;55.20;;;;;;5047988;28;20036;-61
2022/04/15 11:16:13;;;;;;;;;;;18.60;56.20;;;;;;5047924;28;20299;-61
2022/04/15 11:18:46;;;;;;;1.05;0.75;;;18.40;55.40;;;;;;5037800;28;20427;-61
2022/04/15 11:21:19;;;;;;;1.67;0.77;;;18.30;56.90;;;;;;5048640;28;20041;-61
2022/04/15 11:23:47;;;;;;;13.30;3.88;;;18.10;56.50;;;;;;5043293;28;20123;-61
2022/04/15 11:26:14;;;;;;;1.55;1.20;;;18.10;59.30;;;;;;5043673;28;20177;-60
2022/04/15 11:28:41;;;;;;;3.15;1.00;;;17.90;58.60;;;;;;5052015;28;20025;-61
2022/04/15 11:31:25;;;;;;;2.70;1.27;;;17.70;57.70;;;;;;5049871;28;20060;-61
2022/04/15 11:33:53;;;;;;;1.65;1.13;;;17.50;58.90;;;;;;5050791;28;20037;-61
2022/04/15 11:36:20;;;;;;;1.27;0.93;;;17.40;59.40;;;;;;5047160;28;20059;-61
2022/04/15 11:38:49;;;;;;;4.85;0.90;;;17.30;61.10;;;;;;5054581;28;20028;-60
2022/04/15 11:41:22;;;;;;;1.40;0.98;;;17.10;62.20;;;;;;5040633;28;20051;-61
2022/04/15 11:43:59;;;;;;;1.90;0.88;;;17.00;64.10;;;;;;5044885;28;20425;-61
2022/04/15 11:46:52;;;;;;;1.15;0.85;;;16.90;65.30;;;;;;5048652;28;20652;-61
2022/04/15 11:49:27;;;;;;;4.95;1.30;;;16.90;65.80;;;;;;5034174;28;20245;-61
2022/04/15 11:52:00;;;;;;;2.53;1.50;;;16.90;66.30;;;;;;5033884;28;20137;-61
2022/04/15 11:54:39;;;;;;;6.50;1.40;;;16.80;66.50;;;;;;5036215;28;20049;-61
2022/04/15 11:57:06;;;;;;;2.65;1.58;;;16.70;67.90;;;;;;5035662;28;20033;-61
2022/04/15 11:59:42;;;;;;;3.28;1.30;;;16.70;69.90;;;;;;5035935;28;20501;-61
2022/04/15 12:02:10;;;;;;;5.53;1.85;;;16.60;70.40;;;;;;5029838;28;20033;-61
2022/04/15 12:04:36;;;;;;;5.13;2.15;;;16.60;69.30;;;;;;5014948;28;20612;-61
2022/04/15 12:07:03;;;;;;;2.65;1.90;;;16.60;69.40;;;;;;5029094;28;20037;-61
2022/04/15 12:09:29;;;;;;;4.35;1.90;;;16.50;68.90;;;;;;5014915;28;20057;-61
2022/04/15 12:11:55;;;;;;;3.40;1.73;;;16.50;68.30;;;;;;5036006;28;20435;-61
2022/04/15 12:14:34;;;;;;;3.00;2.05;;;16.50;69.10;;;;;;5031639;28;20116;-61
2022/04/15 12:17:00;;;;;;;3.53;1.60;;;16.40;69.90;;;;;;5033875;28;20581;-61
2022/04/15 12:19:25;;;;;;;12.20;8.77;;;16.30;70.70;;;;;;5035884;28;20041;-61
2022/04/15 12:21:51;;;;;;;6.15;3.22;;;16.40;69.90;;;;;;5034413;28;20033;-61
2022/04/15 12:24:25;;;;;;;51.90;34.28;;;16.40;70.00;;;;;;5026282;28;20828;-60
2022/04/15 12:26:54;;;;;;;18.92;13.73;;;16.40;70.20;;;;;;5033623;28;20115;-60
2022/04/15 12:32:35;;;;;;;3.72;1.90;;;16.50;69.10;;;;;;5027144;28;20044;-61
2022/04/15 12:35:00;;;;;;;5.90;2.13;;;16.50;69.80;;;;;;5034966;28;20061;-60
2022/04/15 12:37:53;;;;;;;5.43;2.38;;;16.50;68.90;;;;;;5024883;28;20033;-61
2022/04/15 12:40:19;;;;;;;3.72;2.38;;;16.50;67.00;;;;;;5035099;28;20744;-60
2022/04/15 12:42:48;;;;;;;4.40;2.10;;;16.50;68.70;;;;;;5039320;28;20172;-61
2022/04/15 12:45:21;;;;;;;9.80;2.45;;;16.40;68.20;;;;;;5015386;28;20107;-61
2022/04/15 12:48:09;;;;;;;3.85;2.45;;;16.40;68.40;;;;;;5042392;28;20470;-61
2022/04/15 12:50:36;;;;;;;5.00;2.70;;;16.30;69.60;;;;;;5035624;28;20065;-61
2022/04/15 12:53:15;;;;;;;4.75;2.10;;;16.20;69.00;;;;;;5038205;28;20451;-61
2022/04/15 12:55:41;;;;;;;9.13;2.20;;;16.20;70.20;;;;;;5037030;28;20106;-67
2022/04/15 12:58:26;;;;;;;5.72;2.38;;;16.20;69.50;;;;;;5031134;28;20041;-67
2022/04/15 13:00:54;;;;;;;5.13;2.28;;;16.20;70.60;;;;;;5030879;28;20676;-68